createdAt,value
2023-02-17T00:01:22.029Z,7.31
2023-02-17T00:03:53.516Z,7.28
2023-02-17T00:06:26.611Z,7.27
2023-02-17T00:08:58.299Z,7.28
2023-02-17T00:11:29.684Z,7.29
2023-02-17T00:14:00.973Z,7.30
2023-02-17T00:16:31.849Z,7.30
2023-02-17T00:19:03.406Z,7.31
2023-02-17T00:21:34.203Z,7.30
2023-02-17T00:24:05.114Z,7.29
2023-02-17T00:26:35.825Z,7.30
2023-02-17T00:29:06.536Z,7.30
2023-02-17T00:31:37.303Z,7.26
2023-02-17T00:34:08.002Z,7.25
2023-02-17T00:36:38.758Z,7.28
2023-02-17T00:39:12.969Z,7.29
2023-02-17T00:41:44.077Z,7.30
2023-02-17T00:44:15.495Z,7.31
2023-02-17T00:46:46.737Z,7.31
2023-02-17T00:49:20.369Z,7.29
2023-02-17T00:51:52.636Z,7.28
2023-02-17T00:54:23.307Z,7.27
2023-02-17T00:56:54.143Z,7.26
2023-02-17T00:59:24.836Z,7.24
2023-02-17T01:01:55.749Z,7.24
2023-02-17T01:04:26.517Z,7.23
2023-02-17T01:06:57.272Z,7.25
2023-02-17T01:09:28.008Z,7.26
2023-02-17T01:11:58.746Z,7.24
2023-02-17T01:14:29.733Z,7.24
2023-02-17T01:17:00.407Z,7.24
2023-02-17T01:19:31.305Z,7.25
2023-02-17T01:22:02.027Z,7.23
2023-02-17T01:24:32.808Z,7.22
2023-02-17T01:27:03.577Z,7.23
2023-02-17T01:29:34.387Z,7.25
2023-02-17T01:32:05.368Z,7.25
2023-02-17T01:34:36.960Z,7.25
2023-02-17T01:37:06.060Z,7.27
2023-02-17T01:39:36.830Z,7.28
2023-02-17T01:42:12.468Z,7.30
2023-02-17T01:45:13.467Z,7.32
2023-02-17T01:47:45.366Z,7.30
2023-02-17T01:50:16.046Z,7.29
2023-02-17T01:52:46.859Z,7.31
2023-02-17T01:55:20.854Z,7.33
2023-02-17T01:57:54.275Z,7.34
2023-02-17T02:00:29.237Z,7.35
2023-02-17T02:03:02.039Z,7.33
2023-02-17T02:05:32.812Z,7.32
2023-02-17T02:08:03.806Z,7.32
2023-02-17T02:10:32.907Z,7.32
2023-02-17T02:13:03.822Z,7.30
2023-02-17T02:15:40.503Z,7.30
2023-02-17T02:18:32.607Z,7.26
2023-02-17T02:21:29.854Z,7.27
2023-02-17T02:24:18.550Z,7.29
2023-02-17T02:27:31.214Z,7.29
2023-02-17T02:30:29.086Z,7.29
2023-02-17T02:33:08.038Z,7.29
2023-02-17T02:35:49.282Z,7.31
2023-02-17T02:38:24.549Z,7.31
2023-02-17T02:41:02.613Z,7.30
2023-02-17T02:43:34.851Z,7.28
2023-02-17T02:46:06.115Z,7.27
2023-02-17T02:48:37.801Z,7.27
2023-02-17T02:51:25.735Z,7.26
2023-02-17T02:54:17.003Z,7.25
2023-02-17T02:57:03.301Z,7.26
2023-02-17T02:59:43.654Z,7.28
2023-02-17T03:02:26.157Z,7.27
2023-02-17T03:05:05.458Z,7.27
2023-02-17T03:07:42.458Z,7.25
2023-02-17T03:10:13.714Z,7.24
2023-02-17T03:12:44.577Z,7.22
2023-02-17T03:15:21.800Z,7.20
2023-02-17T03:17:52.596Z,7.22
2023-02-17T03:20:23.997Z,7.23
2023-02-17T03:22:54.706Z,7.23
2023-02-17T03:25:25.792Z,7.22
2023-02-17T03:27:54.995Z,7.22
2023-02-17T03:30:25.695Z,7.21
2023-02-17T03:32:56.585Z,7.21
2023-02-17T03:35:27.244Z,7.19
2023-02-17T03:37:57.991Z,7.16
2023-02-17T03:40:28.957Z,7.15
2023-02-17T03:42:59.695Z,7.15
2023-02-17T03:45:30.499Z,7.13
2023-02-17T03:48:01.253Z,7.08
2023-02-17T03:50:32.221Z,7.08
2023-02-17T03:53:02.952Z,7.07
2023-02-17T03:55:33.670Z,7.04
2023-02-17T03:58:04.628Z,7.06
2023-02-17T04:00:35.284Z,7.09
2023-02-17T04:03:06.043Z,7.14
2023-02-17T04:05:36.808Z,7.14
2023-02-17T04:08:07.615Z,7.15
2023-02-17T04:10:38.260Z,7.14
2023-02-17T04:13:08.909Z,7.14
2023-02-17T04:15:39.590Z,7.15
2023-02-17T04:18:10.274Z,7.15
2023-02-17T04:20:41.079Z,7.14
2023-02-17T04:23:11.813Z,7.16
2023-02-17T04:25:42.804Z,7.19
2023-02-17T04:28:12.197Z,7.19
2023-02-17T04:30:44.227Z,7.17
2023-02-17T04:33:15.439Z,7.18
2023-02-17T04:35:46.979Z,7.19
2023-02-17T04:38:17.727Z,7.18
2023-02-17T04:40:48.548Z,7.17
2023-02-17T04:43:19.233Z,7.17
2023-02-17T04:45:50.106Z,7.15
2023-02-17T04:48:21.108Z,7.13
2023-02-17T04:50:52.026Z,7.09
2023-02-17T04:53:22.887Z,7.09
2023-02-17T04:55:54.204Z,7.05
2023-02-17T04:58:24.916Z,7.05
2023-02-17T05:00:58.488Z,7.04
2023-02-17T05:03:29.199Z,7.00
2023-02-17T05:05:59.843Z,6.98
2023-02-17T05:08:30.557Z,6.96
2023-02-17T05:11:01.192Z,6.95
2023-02-17T05:13:31.888Z,6.95
2023-02-17T05:16:02.904Z,6.92
2023-02-17T05:18:32.130Z,6.91
2023-02-17T05:21:02.995Z,6.89
2023-02-17T05:23:33.739Z,6.87
2023-02-17T05:26:04.772Z,6.84
2023-02-17T05:28:36.798Z,6.79
2023-02-17T05:31:07.760Z,6.76
2023-02-17T05:33:36.934Z,6.75
2023-02-17T05:36:11.458Z,6.70
2023-02-17T05:38:42.167Z,6.69
2023-02-17T05:41:12.846Z,6.69
2023-02-17T05:43:43.549Z,6.70
2023-02-17T05:46:14.340Z,6.67
2023-02-17T05:48:45.010Z,6.62
2023-02-17T05:51:15.889Z,6.58
2023-02-17T05:53:46.696Z,6.54
2023-02-17T05:56:17.419Z,6.53
2023-02-17T05:58:48.174Z,6.53
2023-02-17T06:01:19.002Z,6.53
2023-02-17T06:03:50.104Z,6.54
2023-02-17T06:06:20.878Z,6.56
2023-02-17T06:08:51.772Z,6.58
2023-02-17T06:11:22.403Z,6.58
2023-02-17T06:13:53.094Z,6.59
2023-02-17T06:16:23.811Z,6.58
2023-02-17T06:18:54.957Z,6.55
2023-02-17T06:21:25.911Z,6.53
2023-02-17T06:23:56.601Z,6.49
2023-02-17T06:26:27.372Z,6.47
2023-02-17T06:28:58.214Z,6.48
2023-02-17T06:31:29.099Z,6.50
2023-02-17T06:33:58.423Z,6.49
2023-02-17T06:36:29.099Z,6.49
2023-02-17T06:38:59.846Z,6.49
2023-02-17T06:41:30.515Z,6.49
2023-02-17T06:44:01.223Z,6.50
2023-02-17T06:46:31.941Z,6.50
2023-02-17T06:49:02.883Z,6.50
2023-02-17T06:51:33.891Z,6.51
2023-02-17T06:54:04.911Z,6.47
2023-02-17T06:56:35.545Z,6.49
2023-02-17T06:59:06.547Z,6.49
2023-02-17T07:01:37.265Z,6.47
2023-02-17T07:04:08.195Z,6.48
2023-02-17T07:06:38.913Z,6.50
2023-02-17T07:09:09.741Z,6.50
2023-02-17T07:11:40.438Z,6.49
2023-02-17T07:14:11.503Z,6.52
2023-02-17T07:16:40.627Z,6.52
2023-02-17T07:19:11.378Z,6.50
2023-02-17T07:21:42.547Z,6.50
2023-02-17T07:24:12.001Z,6.49
2023-02-17T07:26:43.105Z,6.48
2023-02-17T07:29:14.204Z,6.50
2023-02-17T07:31:44.906Z,6.50
2023-02-17T07:34:15.781Z,6.52
2023-02-17T07:36:51.278Z,6.55
2023-02-17T07:39:22.002Z,6.60
2023-02-17T07:41:52.699Z,6.65
2023-02-17T07:44:23.399Z,6.68
2023-02-17T07:46:54.478Z,6.70
2023-02-17T07:49:23.630Z,6.72
2023-02-17T07:51:54.459Z,6.71
2023-02-17T07:54:25.317Z,6.75
2023-02-17T07:56:56.031Z,6.78
2023-02-17T07:59:26.838Z,6.81
2023-02-17T08:01:57.497Z,6.81
2023-02-17T08:04:28.854Z,6.79
2023-02-17T08:06:59.823Z,6.81
2023-02-17T08:09:30.651Z,6.82
2023-02-17T08:12:01.801Z,6.86
2023-02-17T08:14:33.587Z,6.88
2023-02-17T08:17:04.289Z,6.91
2023-02-17T08:19:47.397Z,6.94
2023-02-17T08:22:19.471Z,6.98
2023-02-17T08:24:50.481Z,7.01
2023-02-17T08:27:19.772Z,7.03
2023-02-17T08:29:50.473Z,7.04
2023-02-17T08:32:21.343Z,7.07
2023-02-17T08:34:55.128Z,7.11
2023-02-17T08:37:26.134Z,7.11
2023-02-17T08:39:57.269Z,7.13
2023-02-17T08:42:28.411Z,7.16
2023-02-17T08:44:57.545Z,7.17
2023-02-17T08:47:28.235Z,7.17
2023-02-17T08:49:59.077Z,7.17
2023-02-17T08:52:29.838Z,7.21
2023-02-17T08:55:00.617Z,7.25
2023-02-17T08:57:31.564Z,7.26
2023-02-17T09:00:03.696Z,7.30
2023-02-17T09:02:36.086Z,7.33
2023-02-17T09:05:07.937Z,7.37
2023-02-17T09:07:38.701Z,7.44
2023-02-17T09:10:19.803Z,7.49
2023-02-17T09:12:48.912Z,7.55
2023-02-17T09:15:20.128Z,7.59
2023-02-17T09:17:50.941Z,7.65
2023-02-17T09:20:29.946Z,7.72
2023-02-17T09:23:00.659Z,7.77
2023-02-17T09:25:31.474Z,7.81
2023-02-17T09:28:02.434Z,7.85
2023-02-17T09:30:33.644Z,7.90
2023-02-17T09:33:04.793Z,7.96
2023-02-17T09:35:33.930Z,7.98
2023-02-17T09:38:04.639Z,8.00
2023-02-17T09:40:42.773Z,8.02
2023-02-17T09:43:15.943Z,8.04
2023-02-17T09:45:52.745Z,8.05
2023-02-17T09:48:27.033Z,8.05
2023-02-17T09:51:01.313Z,8.10
2023-02-17T09:53:38.269Z,8.11
2023-02-17T09:56:14.576Z,8.12
2023-02-17T09:58:50.381Z,8.14
2023-02-17T10:01:23.915Z,8.16
2023-02-17T10:03:59.914Z,8.19
2023-02-17T10:06:34.190Z,8.21
2023-02-17T10:09:11.860Z,8.25
2023-02-17T10:11:48.292Z,8.29
2023-02-17T10:14:22.662Z,8.33
2023-02-17T10:17:00.554Z,8.36
2023-02-17T10:19:34.610Z,8.38
2023-02-17T10:22:11.267Z,8.40
2023-02-17T10:24:41.961Z,8.42
2023-02-17T10:27:28.075Z,8.45
2023-02-17T10:30:14.393Z,8.44
2023-02-17T10:33:03.222Z,8.46
2023-02-17T10:35:49.627Z,8.46
2023-02-17T10:38:51.907Z,8.47
2023-02-17T10:41:41.416Z,8.49
2023-02-17T10:44:32.323Z,8.50
2023-02-17T10:47:10.033Z,8.53
2023-02-17T10:49:45.322Z,8.56
2023-02-17T10:52:19.408Z,8.61
2023-02-17T10:54:54.411Z,8.66
2023-02-17T10:57:27.463Z,8.71
2023-02-17T11:00:16.877Z,8.75
2023-02-17T11:02:49.304Z,8.81
2023-02-17T11:05:26.998Z,8.88
2023-02-17T11:08:01.387Z,8.95
2023-02-17T11:10:34.783Z,9.03
2023-02-17T11:17:18.536Z,9.18
2023-02-17T11:19:58.884Z,9.21
2023-02-17T11:22:33.466Z,9.27
2023-02-17T11:25:30.932Z,9.30
2023-02-17T11:28:24.123Z,9.31
2023-02-17T11:30:57.980Z,9.32
2023-02-17T11:33:34.539Z,9.29
2023-02-17T11:36:21.744Z,9.32
2023-02-17T11:38:52.771Z,9.32
2023-02-17T11:41:43.485Z,9.30
2023-02-17T11:44:25.050Z,9.29
2023-02-17T11:50:56.790Z,9.25
2023-02-17T11:53:50.613Z,9.28
2023-02-17T11:56:28.402Z,9.35
2023-02-17T11:59:22.068Z,9.39
2023-02-17T12:02:09.050Z,9.42
2023-02-17T12:04:48.299Z,9.48
2023-02-17T12:07:34.787Z,9.52
2023-02-17T12:10:15.951Z,9.54
2023-02-17T12:12:54.981Z,9.55
2023-02-17T12:15:35.335Z,9.52
2023-02-17T12:18:21.246Z,9.49
2023-02-17T12:21:01.027Z,9.47
2023-02-17T12:23:59.594Z,9.49
2023-02-17T12:26:39.814Z,9.50
2023-02-17T12:29:26.057Z,9.50
2023-02-17T12:32:10.561Z,9.54
2023-02-17T12:34:44.646Z,9.56
2023-02-17T12:37:21.812Z,9.52
2023-02-17T12:43:25.891Z,9.40
2023-02-17T12:45:59.200Z,9.36
2023-02-17T12:48:35.502Z,9.33
2023-02-17T12:51:15.164Z,9.29
2023-02-17T12:53:51.545Z,9.25
2023-02-17T12:56:46.987Z,9.22
2023-02-17T12:59:21.709Z,9.19
2023-02-17T13:01:59.107Z,9.19
2023-02-17T13:04:32.165Z,9.18
2023-02-17T13:07:15.744Z,9.13
2023-02-17T13:09:50.497Z,9.13
2023-02-17T13:12:39.820Z,9.12
2023-02-17T13:15:29.391Z,9.08
2023-02-17T13:18:03.126Z,9.08
2023-02-17T13:20:55.378Z,9.08
2023-02-17T13:23:38.821Z,9.07
2023-02-17T13:26:28.192Z,9.08
2023-02-17T13:29:32.387Z,9.08
2023-02-17T13:32:06.113Z,9.08
2023-02-17T13:34:39.198Z,9.10
2023-02-17T13:37:24.641Z,9.10
2023-02-17T13:39:55.593Z,9.10
2023-02-17T13:42:43.808Z,9.11
2023-02-17T13:45:21.876Z,9.11
2023-02-17T13:47:54.914Z,9.13
2023-02-17T13:50:32.721Z,9.13
2023-02-17T13:53:19.429Z,9.17
2023-02-17T13:55:50.912Z,9.18
2023-02-17T14:02:35.866Z,9.22
2023-02-17T14:05:16.907Z,9.21
2023-02-17T14:07:48.490Z,9.20
2023-02-17T14:10:22.907Z,9.22
2023-02-17T14:12:54.836Z,9.22
2023-02-17T14:15:27.571Z,9.23
2023-02-17T14:17:58.265Z,9.23
2023-02-17T14:20:34.906Z,9.24
2023-02-17T14:23:08.655Z,9.23
2023-02-17T14:25:42.203Z,9.24
2023-02-17T14:28:22.408Z,9.25
2023-02-17T14:30:54.125Z,9.25
2023-02-17T14:33:26.498Z,9.24
2023-02-17T14:35:59.347Z,9.24
2023-02-17T14:38:32.045Z,9.25
2023-02-17T14:41:02.825Z,9.26
2023-02-17T14:43:33.612Z,9.29
2023-02-17T14:46:04.474Z,9.32
2023-02-17T14:48:33.652Z,9.33
2023-02-17T14:51:11.076Z,9.34
2023-02-17T14:53:42.099Z,9.36
2023-02-17T14:56:15.382Z,9.38
2023-02-17T14:58:46.509Z,9.38
2023-02-17T15:01:18.559Z,9.40
2023-02-17T15:03:49.510Z,9.40
2023-02-17T15:06:23.583Z,9.43
2023-02-17T15:08:54.654Z,9.43
2023-02-17T15:11:27.339Z,9.46
2023-02-17T15:13:58.359Z,9.48
2023-02-17T15:16:27.399Z,9.52
2023-02-17T15:18:58.091Z,9.55
2023-02-17T15:21:31.500Z,9.59
2023-02-17T15:24:04.026Z,9.62
2023-02-17T15:26:34.720Z,9.64
2023-02-17T15:29:05.866Z,9.66
2023-02-17T15:31:35.036Z,9.68
2023-02-17T15:34:15.304Z,9.70
2023-02-17T15:36:46.701Z,9.71
2023-02-17T15:39:19.139Z,9.73
2023-02-17T15:41:52.121Z,9.76
2023-02-17T15:44:26.284Z,9.77
2023-02-17T15:46:57.245Z,9.78
2023-02-17T15:49:28.053Z,9.80
2023-02-17T15:51:58.806Z,9.83
2023-02-17T15:54:29.598Z,9.83
2023-02-17T15:57:00.348Z,9.85
2023-02-17T15:59:31.569Z,9.86
2023-02-17T16:02:02.651Z,9.87
2023-02-17T16:04:31.902Z,9.89
2023-02-17T16:07:02.592Z,9.90
2023-02-17T16:09:33.538Z,9.93
2023-02-17T16:12:05.188Z,9.95
2023-02-17T16:14:37.653Z,9.99
2023-02-17T16:17:15.845Z,10.02
2023-02-17T16:19:46.502Z,10.06
2023-02-17T16:22:17.130Z,10.08
2023-02-17T16:24:47.830Z,10.11
2023-02-17T16:27:19.004Z,10.14
2023-02-17T16:29:49.704Z,10.16
2023-02-17T16:32:20.482Z,10.20
2023-02-17T16:34:51.236Z,10.24
2023-02-17T16:37:21.850Z,10.26
2023-02-17T16:39:52.504Z,10.29
2023-02-17T16:42:23.191Z,10.32
2023-02-17T16:44:53.959Z,10.36
2023-02-17T16:47:24.748Z,10.39
2023-02-17T16:49:55.480Z,10.41
2023-02-17T16:52:27.910Z,10.44
2023-02-17T16:54:58.733Z,10.47
2023-02-17T16:57:29.569Z,10.49
2023-02-17T17:00:00.264Z,10.51
2023-02-17T17:02:30.952Z,10.53
2023-02-17T17:05:01.685Z,10.55
2023-02-17T17:07:32.703Z,10.57
2023-02-17T17:10:17.767Z,10.59
2023-02-17T17:12:48.684Z,10.62
2023-02-17T17:15:20.080Z,10.63
2023-02-17T17:17:56.065Z,10.65
2023-02-17T17:20:32.503Z,10.68
2023-02-17T17:23:04.440Z,10.70
2023-02-17T17:25:38.117Z,10.73
2023-02-17T17:28:12.518Z,10.77
2023-02-17T17:30:43.302Z,10.79
2023-02-17T17:33:13.960Z,10.80
2023-02-17T17:35:44.791Z,10.81
2023-02-17T17:38:16.487Z,10.83
2023-02-17T17:40:47.216Z,10.84
2023-02-17T17:43:19.571Z,10.86
2023-02-17T17:45:51.375Z,10.86
2023-02-17T17:48:22.636Z,10.87
2023-02-17T17:50:53.748Z,10.87
2023-02-17T17:53:22.830Z,10.88
2023-02-17T17:55:53.808Z,10.87
2023-02-17T17:58:24.452Z,10.88
2023-02-17T18:00:55.138Z,10.90
2023-02-17T18:03:25.744Z,10.92
2023-02-17T18:05:56.650Z,10.93
2023-02-17T18:08:25.833Z,10.93
2023-02-17T18:10:57.065Z,10.93
2023-02-17T18:13:27.989Z,10.94
2023-02-17T18:15:57.278Z,10.95
2023-02-17T18:18:28.020Z,10.96
2023-02-17T18:20:58.734Z,10.97
2023-02-17T18:23:29.484Z,10.99
2023-02-17T18:26:00.213Z,11.00
2023-02-17T18:28:30.905Z,11.00
2023-02-17T18:31:05.831Z,10.98
2023-02-17T18:33:37.109Z,10.96
2023-02-17T18:36:15.028Z,10.95
2023-02-17T18:38:46.089Z,10.94
2023-02-17T18:41:18.539Z,10.95
2023-02-17T18:43:49.755Z,10.96
2023-02-17T18:46:21.013Z,10.97
2023-02-17T18:48:51.989Z,10.98
2023-02-17T18:51:25.107Z,11.01
2023-02-17T18:53:57.618Z,11.03
2023-02-17T18:56:30.465Z,11.05
2023-02-17T18:59:01.770Z,11.07
2023-02-17T19:01:34.641Z,11.10
2023-02-17T19:04:05.655Z,11.13
2023-02-17T19:06:36.426Z,11.14
2023-02-17T19:09:07.107Z,11.15
2023-02-17T19:11:37.770Z,11.18
2023-02-17T19:14:08.451Z,11.20
2023-02-17T19:16:39.259Z,11.21
2023-02-17T19:19:09.853Z,11.23
2023-02-17T19:21:40.578Z,11.25
2023-02-17T19:24:11.447Z,11.27
2023-02-17T19:26:42.153Z,11.26
2023-02-17T19:29:12.797Z,11.25
2023-02-17T19:31:43.666Z,11.23
2023-02-17T19:34:14.369Z,11.22
2023-02-17T19:36:45.156Z,11.22
2023-02-17T19:39:15.927Z,11.20
2023-02-17T19:41:45.381Z,11.16
2023-02-17T19:44:39.026Z,11.10
2023-02-17T19:47:08.016Z,11.03
2023-02-17T19:49:37.229Z,10.97
2023-02-17T19:52:08.146Z,10.90
2023-02-17T19:54:39.025Z,10.81
2023-02-17T19:57:09.738Z,10.73
2023-02-17T19:59:40.478Z,10.71
2023-02-17T20:02:14.436Z,10.68
2023-02-17T20:04:46.253Z,10.62
2023-02-17T20:07:16.903Z,10.57
2023-02-17T20:09:47.548Z,10.51
2023-02-17T20:12:18.620Z,10.46
2023-02-17T20:14:47.688Z,10.40
2023-02-17T20:17:18.533Z,10.33
2023-02-17T20:19:49.212Z,10.27
2023-02-17T20:22:19.885Z,10.22
2023-02-17T20:24:49.508Z,10.17
2023-02-17T20:27:20.284Z,10.13
2023-02-17T20:29:51.053Z,10.08
2023-02-17T20:32:21.783Z,10.02
2023-02-17T20:34:52.813Z,10.00
2023-02-17T20:37:21.968Z,9.92
2023-02-17T20:39:52.812Z,9.87
2023-02-17T20:42:23.476Z,9.83
2023-02-17T20:44:54.262Z,9.81
2023-02-17T20:47:25.093Z,9.74
2023-02-17T20:49:56.107Z,9.68
2023-02-17T20:52:25.436Z,9.63
2023-02-17T20:54:56.161Z,9.56
2023-02-17T20:57:26.433Z,9.50
2023-02-17T20:59:57.251Z,9.44
2023-02-17T21:02:28.031Z,9.40
2023-02-17T21:04:58.823Z,9.38
2023-02-17T21:07:29.542Z,9.33
2023-02-17T21:10:12.609Z,9.27
2023-02-17T21:12:46.789Z,9.25
2023-02-17T21:15:17.823Z,9.21
2023-02-17T21:17:47.314Z,9.18
2023-02-17T21:20:23.168Z,9.15
2023-02-17T21:22:53.815Z,9.07
2023-02-17T21:25:24.710Z,9.03
2023-02-17T21:27:55.619Z,9.00
2023-02-17T21:30:26.420Z,8.97
2023-02-17T21:32:57.091Z,8.91
2023-02-17T21:35:27.839Z,8.88
2023-02-17T21:37:58.528Z,8.85
2023-02-17T21:40:38.000Z,8.81
2023-02-17T21:43:09.557Z,8.77
2023-02-17T21:45:40.518Z,8.75
2023-02-17T21:48:11.216Z,8.73
2023-02-17T21:50:41.906Z,8.69
2023-02-17T21:53:12.606Z,8.68
2023-02-17T21:55:43.477Z,8.66
2023-02-17T21:58:14.169Z,8.65
2023-02-17T22:00:47.892Z,8.63
2023-02-17T22:03:18.618Z,8.63
2023-02-17T22:05:49.554Z,8.60
2023-02-17T22:08:18.654Z,8.57
2023-02-17T22:10:49.532Z,8.52
2023-02-17T22:13:20.183Z,8.47
2023-02-17T22:15:58.924Z,8.42
2023-02-17T22:18:30.245Z,8.38
2023-02-17T22:21:00.925Z,8.36
2023-02-17T22:23:31.574Z,8.33
2023-02-17T22:26:04.470Z,8.28
2023-02-17T22:28:35.349Z,8.26
2023-02-17T22:31:07.412Z,8.21
2023-02-17T22:33:38.165Z,8.17
2023-02-17T22:36:11.730Z,8.14
2023-02-17T22:38:42.454Z,8.10
2023-02-17T22:41:15.613Z,8.08
2023-02-17T22:43:47.250Z,8.05
2023-02-17T22:46:20.405Z,8.04
2023-02-17T22:48:52.202Z,8.02
2023-02-17T22:51:25.152Z,8.01
2023-02-17T22:53:56.418Z,7.99
2023-02-17T22:56:27.384Z,7.96
2023-02-17T22:58:56.588Z,7.94
2023-02-17T23:01:28.225Z,7.91
2023-02-17T23:03:58.965Z,7.89
2023-02-17T23:06:31.364Z,7.86
2023-02-17T23:09:02.627Z,7.83
2023-02-17T23:11:35.354Z,7.80
2023-02-17T23:14:06.019Z,7.76
2023-02-17T23:16:37.021Z,7.72
2023-02-17T23:19:10.156Z,7.67
2023-02-17T23:21:44.312Z,7.64
2023-02-17T23:24:15.951Z,7.60
2023-02-17T23:26:46.791Z,7.58
2023-02-17T23:29:18.062Z,7.56
2023-02-17T23:31:48.849Z,7.54
2023-02-17T23:34:19.798Z,7.53
2023-02-17T23:36:50.689Z,7.50
2023-02-17T23:39:22.503Z,7.49
2023-02-17T23:41:53.359Z,7.47
2023-02-17T23:44:24.074Z,7.43
2023-02-17T23:46:54.805Z,7.42
2023-02-17T23:49:25.425Z,7.40
2023-02-17T23:51:56.115Z,7.38
2023-02-17T23:54:26.778Z,7.37
2023-02-17T23:56:57.458Z,7.35
2023-02-17T23:59:28.142Z,7.33
